createdAt,value
2022-08-27T00:01:49.240Z,19.70
2022-08-27T00:04:18.864Z,19.70
2022-08-27T00:06:46.948Z,19.60
2022-08-27T00:09:15.083Z,19.70
2022-08-27T00:11:45.053Z,19.60
2022-08-27T00:14:13.566Z,19.80
2022-08-27T00:16:42.020Z,19.60
2022-08-27T00:19:10.440Z,19.50
2022-08-27T00:21:39.758Z,19.50
2022-08-27T00:24:07.875Z,19.50
2022-08-27T00:26:39.108Z,19.50
2022-08-27T00:29:09.800Z,19.50
2022-08-27T00:31:37.835Z,19.40
2022-08-27T00:34:05.838Z,19.40
2022-08-27T00:36:36.108Z,19.40
2022-08-27T00:39:06.224Z,19.30
2022-08-27T00:41:35.059Z,19.30
2022-08-27T00:44:03.377Z,19.30
2022-08-27T00:46:35.439Z,19.30
2022-08-27T00:49:07.718Z,19.30
2022-08-27T00:51:36.375Z,19.30
2022-08-27T00:54:07.205Z,19.30
2022-08-27T00:56:38.733Z,19.20
2022-08-27T00:59:06.744Z,19.20
2022-08-27T01:01:55.778Z,19.10
2022-08-27T01:04:23.883Z,19.30
2022-08-27T01:06:52.500Z,19.10
2022-08-27T01:09:22.301Z,19.10
2022-08-27T01:11:50.457Z,19.10
2022-08-27T01:14:19.468Z,19.00
2022-08-27T01:16:51.226Z,19.00
2022-08-27T01:19:25.233Z,18.40
2022-08-27T01:21:58.717Z,19.00
2022-08-27T01:24:33.845Z,19.10
2022-08-27T01:27:01.999Z,19.00
2022-08-27T01:29:30.781Z,18.90
2022-08-27T01:32:01.426Z,18.90
2022-08-27T01:34:29.471Z,18.90
2022-08-27T01:36:57.650Z,18.90
2022-08-27T01:39:25.731Z,18.90
2022-08-27T01:41:55.452Z,18.90
2022-08-27T01:44:23.397Z,18.90
2022-08-27T01:46:51.398Z,20.30
2022-08-27T01:49:19.413Z,19.90
2022-08-27T01:51:47.413Z,18.90
2022-08-27T01:54:15.353Z,18.90
2022-08-27T01:56:43.426Z,18.80
2022-08-27T01:59:12.789Z,18.90
2022-08-27T02:01:40.752Z,18.70
2022-08-27T02:04:09.502Z,18.80
2022-08-27T02:06:37.541Z,20.00
2022-08-27T02:09:05.497Z,18.80
2022-08-27T02:11:33.529Z,18.70
2022-08-27T02:14:12.792Z,18.70
2022-08-27T02:16:52.260Z,18.70
2022-08-27T02:19:21.621Z,18.70
2022-08-27T02:21:50.349Z,18.70
2022-08-27T02:24:18.300Z,19.40
2022-08-27T02:26:46.639Z,18.60
2022-08-27T02:29:14.557Z,18.70
2022-08-27T02:31:43.893Z,18.70
2022-08-27T02:34:11.841Z,18.70
2022-08-27T02:36:39.791Z,18.60
2022-08-27T02:39:07.932Z,18.70
2022-08-27T02:41:36.481Z,18.50
2022-08-27T02:44:10.452Z,20.10
2022-08-27T02:46:39.181Z,18.60
2022-08-27T02:49:10.320Z,18.60
2022-08-27T02:51:38.995Z,18.60
2022-08-27T02:54:08.547Z,17.50
2022-08-27T02:56:38.434Z,18.60
2022-08-27T02:59:06.714Z,18.60
2022-08-27T03:01:34.722Z,18.50
2022-08-27T03:04:02.665Z,18.50
2022-08-27T03:06:32.040Z,18.50
2022-08-27T03:09:00.041Z,18.50
2022-08-27T03:11:28.024Z,18.30
2022-08-27T03:13:56.028Z,18.40
2022-08-27T03:16:24.180Z,18.90
2022-08-27T03:18:51.619Z,18.40
2022-08-27T03:21:23.375Z,18.30
2022-08-27T03:23:52.920Z,18.30
2022-08-27T03:26:21.709Z,18.30
2022-08-27T03:28:49.978Z,18.30
2022-08-27T03:31:26.625Z,18.30
2022-08-27T03:33:55.687Z,18.30
2022-08-27T03:36:23.670Z,18.30
2022-08-27T03:38:53.647Z,18.40
2022-08-27T03:41:22.359Z,18.40
2022-08-27T03:43:52.951Z,18.30
2022-08-27T03:46:22.814Z,18.50
2022-08-27T03:48:53.842Z,18.30
2022-08-27T03:51:25.411Z,18.30
2022-08-27T03:53:54.705Z,18.20
2022-08-27T03:56:23.176Z,18.20
2022-08-27T03:58:51.258Z,18.20
2022-08-27T04:01:19.384Z,18.30
2022-08-27T04:03:47.417Z,17.60
2022-08-27T04:06:15.334Z,18.30
2022-08-27T04:08:43.325Z,18.20
2022-08-27T04:11:12.640Z,18.20
2022-08-27T04:13:41.168Z,18.30
2022-08-27T04:16:09.193Z,18.20
2022-08-27T04:18:37.214Z,18.20
2022-08-27T04:21:09.140Z,18.80
2022-08-27T04:23:37.084Z,18.20
2022-08-27T04:26:06.248Z,17.90
2022-08-27T04:28:38.593Z,18.10
2022-08-27T04:31:11.977Z,18.10
2022-08-27T04:33:51.195Z,18.10
2022-08-27T04:36:19.799Z,18.10
2022-08-27T04:38:48.073Z,19.50
2022-08-27T04:41:22.996Z,18.10
2022-08-27T04:43:54.169Z,18.10
2022-08-27T04:46:23.918Z,18.10
2022-08-27T04:48:52.794Z,18.10
2022-08-27T04:51:22.182Z,18.10
2022-08-27T04:53:50.979Z,18.10
2022-08-27T04:56:21.740Z,18.10
2022-08-27T04:58:50.409Z,18.10
2022-08-27T05:01:22.481Z,18.10
2022-08-27T05:03:50.631Z,18.10
2022-08-27T05:06:19.109Z,18.10
2022-08-27T05:08:48.886Z,18.10
2022-08-27T05:11:18.187Z,17.90
2022-08-27T05:13:47.535Z,18.00
2022-08-27T05:16:19.253Z,18.20
2022-08-27T05:18:50.284Z,18.00
2022-08-27T05:21:19.500Z,18.10
2022-08-27T05:23:47.812Z,18.00
2022-08-27T05:26:16.065Z,18.00
2022-08-27T05:28:44.432Z,18.10
2022-08-27T05:31:13.731Z,18.10
2022-08-27T05:33:43.173Z,18.00
2022-08-27T05:36:18.442Z,18.00
2022-08-27T05:38:46.502Z,18.10
2022-08-27T05:41:16.687Z,18.30
2022-08-27T05:43:49.695Z,18.10
2022-08-27T05:46:20.433Z,18.10
2022-08-27T05:48:49.396Z,18.20
2022-08-27T05:51:25.222Z,18.20
2022-08-27T05:53:56.610Z,18.20
2022-08-27T05:56:26.645Z,18.30
2022-08-27T05:59:12.679Z,18.30
2022-08-27T06:01:42.950Z,18.10
2022-08-27T06:04:11.618Z,18.20
2022-08-27T06:06:48.561Z,18.10
2022-08-27T06:09:19.098Z,18.20
2022-08-27T06:11:48.187Z,18.20
2022-08-27T06:14:16.454Z,18.20
2022-08-27T06:16:44.607Z,19.00
2022-08-27T06:19:13.152Z,18.20
2022-08-27T06:21:42.044Z,18.30
2022-08-27T06:24:13.155Z,18.30
2022-08-27T06:26:42.199Z,18.40
2022-08-27T06:29:10.906Z,18.40
2022-08-27T06:31:40.605Z,18.40
2022-08-27T06:34:11.114Z,18.50
2022-08-27T06:36:40.614Z,18.50
2022-08-27T06:39:09.019Z,18.60
2022-08-27T06:41:38.662Z,18.60
2022-08-27T06:44:12.783Z,18.70
2022-08-27T06:46:41.699Z,18.80
2022-08-27T06:49:10.185Z,18.70
2022-08-27T06:51:39.919Z,18.80
2022-08-27T06:54:10.455Z,18.80
2022-08-27T06:56:40.584Z,18.90
2022-08-27T06:59:11.609Z,18.90
2022-08-27T07:01:43.257Z,19.00
2022-08-27T07:04:14.095Z,19.10
2022-08-27T07:06:42.608Z,19.20
2022-08-27T07:09:11.374Z,19.20
2022-08-27T07:11:40.696Z,20.10
2022-08-27T07:14:09.853Z,19.60
2022-08-27T07:16:39.622Z,19.70
2022-08-27T07:19:09.042Z,19.90
2022-08-27T07:21:40.038Z,21.40
2022-08-27T07:24:09.264Z,20.10
2022-08-27T07:26:39.635Z,20.30
2022-08-27T07:29:10.279Z,20.00
2022-08-27T07:31:38.778Z,20.00
2022-08-27T07:34:07.442Z,20.00
2022-08-27T07:36:37.753Z,19.90
2022-08-27T07:39:06.447Z,19.80
2022-08-27T07:41:56.272Z,19.90
2022-08-27T07:44:26.071Z,19.90
2022-08-27T07:46:58.253Z,19.80
2022-08-27T07:49:28.845Z,19.80
2022-08-27T07:51:57.025Z,19.80
2022-08-27T07:54:25.418Z,19.90
2022-08-27T07:56:55.619Z,20.10
2022-08-27T07:59:26.264Z,20.70
2022-08-27T08:01:55.047Z,20.40
2022-08-27T08:04:23.678Z,20.50
2022-08-27T08:06:52.345Z,20.60
2022-08-27T08:09:22.097Z,20.50
2022-08-27T08:11:50.478Z,20.40
2022-08-27T08:14:18.602Z,20.30
2022-08-27T08:16:48.056Z,20.40
2022-08-27T08:19:16.221Z,20.50
2022-08-27T08:21:44.229Z,20.50
2022-08-27T08:24:12.250Z,20.50
2022-08-27T08:26:42.033Z,20.50
2022-08-27T08:29:13.294Z,20.50
2022-08-27T08:31:46.956Z,20.50
2022-08-27T08:34:20.617Z,20.50
2022-08-27T08:36:53.986Z,20.50
2022-08-27T08:39:23.326Z,20.50
2022-08-27T08:41:53.433Z,21.20
2022-08-27T08:44:30.995Z,21.60
2022-08-27T08:47:03.344Z,20.90
2022-08-27T08:49:38.897Z,21.30
2022-08-27T08:52:30.532Z,21.80
2022-08-27T08:55:04.445Z,22.00
2022-08-27T08:57:37.592Z,22.30
2022-08-27T09:00:10.738Z,22.50
2022-08-27T09:02:38.977Z,22.40
2022-08-27T09:05:10.035Z,22.30
2022-08-27T09:07:45.657Z,22.00
2022-08-27T09:10:21.401Z,21.70
2022-08-27T09:12:49.487Z,21.60
2022-08-27T09:15:20.737Z,22.10
2022-08-27T09:17:50.271Z,21.30
2022-08-27T09:20:25.699Z,21.30
2022-08-27T09:22:58.829Z,22.50
2022-08-27T09:25:29.166Z,21.30
2022-08-27T09:28:01.649Z,21.30
2022-08-27T09:30:32.044Z,21.50
2022-08-27T09:33:04.295Z,21.50
2022-08-27T09:35:40.077Z,21.40
2022-08-27T09:38:08.198Z,21.20
2022-08-27T09:40:42.608Z,20.70
2022-08-27T09:43:24.570Z,20.60
2022-08-27T09:45:54.354Z,20.30
2022-08-27T09:48:26.178Z,20.20
2022-08-27T09:50:57.120Z,20.00
2022-08-27T09:53:27.684Z,20.00
2022-08-27T09:55:58.391Z,19.80
2022-08-27T09:58:30.869Z,19.80
2022-08-27T10:01:02.736Z,19.70
2022-08-27T10:03:33.412Z,19.70
2022-08-27T10:06:03.316Z,19.60
2022-08-27T10:08:38.737Z,19.60
2022-08-27T10:11:15.354Z,20.30
2022-08-27T10:13:51.286Z,19.50
2022-08-27T10:16:55.179Z,20.10
2022-08-27T10:19:33.633Z,19.10
2022-08-27T10:22:11.567Z,19.40
2022-08-27T10:24:46.066Z,19.30
2022-08-27T10:27:21.099Z,19.20
2022-08-27T10:29:55.418Z,19.40
2022-08-27T10:32:44.963Z,19.20
2022-08-27T10:35:17.043Z,19.20
2022-08-27T10:37:53.667Z,19.20
2022-08-27T10:40:28.399Z,19.30
2022-08-27T10:43:03.647Z,19.40
2022-08-27T10:45:42.628Z,19.50
2022-08-27T10:48:24.336Z,19.60
2022-08-27T10:50:57.710Z,20.00
2022-08-27T10:53:38.405Z,20.30
2022-08-27T10:56:14.474Z,20.00
2022-08-27T10:58:54.208Z,20.80
2022-08-27T11:01:30.232Z,20.40
2022-08-27T11:04:03.453Z,20.50
2022-08-27T11:06:36.035Z,20.60
2022-08-27T11:09:12.277Z,20.60
2022-08-27T11:14:37.491Z,20.80
2022-08-27T11:17:09.493Z,20.90
2022-08-27T11:19:45.065Z,20.90
2022-08-27T11:22:26.126Z,20.80
2022-08-27T11:25:00.637Z,20.80
2022-08-27T11:27:32.731Z,21.20
2022-08-27T11:30:07.919Z,21.90
2022-08-27T11:32:50.253Z,20.70
2022-08-27T11:35:24.070Z,20.60
2022-08-27T11:38:35.790Z,21.30
2022-08-27T11:41:58.371Z,20.90
2022-08-27T11:44:29.103Z,21.70
2022-08-27T11:47:10.813Z,21.00
2022-08-27T11:49:57.239Z,21.90
2022-08-27T11:52:29.554Z,23.10
2022-08-27T11:55:13.037Z,21.30
2022-08-27T11:57:41.736Z,21.30
2022-08-27T12:00:21.361Z,21.70
2022-08-27T12:03:00.337Z,21.90
2022-08-27T12:05:45.521Z,21.60
2022-08-27T12:08:26.888Z,21.90
2022-08-27T12:11:16.291Z,21.20
2022-08-27T12:13:56.567Z,21.50
2022-08-27T12:16:35.916Z,21.80
2022-08-27T12:19:27.620Z,21.90
2022-08-27T12:22:13.408Z,21.70
2022-08-27T12:24:55.472Z,21.20
2022-08-27T12:27:38.280Z,22.00
2022-08-27T12:30:22.955Z,21.80
2022-08-27T12:32:54.485Z,22.40
2022-08-27T12:35:30.592Z,22.10
2022-08-27T12:38:13.068Z,22.00
2022-08-27T12:40:50.694Z,21.00
2022-08-27T12:43:22.720Z,21.80
2022-08-27T12:45:56.870Z,21.20
2022-08-27T12:48:30.877Z,22.40
2022-08-27T12:51:03.811Z,20.90
2022-08-27T12:53:43.897Z,22.00
2022-08-27T12:56:40.649Z,20.80
2022-08-27T12:59:43.323Z,20.70
2022-08-27T13:02:32.405Z,21.70
2022-08-27T13:05:10.063Z,21.10
2022-08-27T13:07:43.449Z,21.90
2022-08-27T13:10:16.021Z,21.70
2022-08-27T13:12:45.466Z,22.90
2022-08-27T13:15:16.889Z,22.30
2022-08-27T13:17:47.804Z,21.60
2022-08-27T13:20:23.615Z,22.00
2022-08-27T13:22:54.247Z,22.30
2022-08-27T13:25:28.073Z,22.00
2022-08-27T13:28:07.648Z,21.50
2022-08-27T13:30:38.257Z,23.20
2022-08-27T13:33:09.073Z,22.40
2022-08-27T13:35:42.553Z,22.10
2022-08-27T13:38:11.990Z,21.80
2022-08-27T13:40:57.830Z,21.50
2022-08-27T13:43:37.366Z,22.20
2022-08-27T13:46:10.681Z,22.80
2022-08-27T13:48:42.545Z,22.10
2022-08-27T13:51:14.163Z,21.70
2022-08-27T13:54:02.774Z,22.20
2022-08-27T13:56:33.575Z,21.20
2022-08-27T13:59:25.059Z,22.60
2022-08-27T14:01:59.863Z,21.60
2022-08-27T14:04:38.440Z,22.60
2022-08-27T14:07:17.505Z,22.00
2022-08-27T14:09:54.243Z,22.00
2022-08-27T14:12:33.112Z,21.90
2022-08-27T14:15:17.677Z,21.90
2022-08-27T14:17:46.833Z,21.40
2022-08-27T14:20:17.023Z,21.70
2022-08-27T14:22:47.543Z,21.70
2022-08-27T14:25:16.750Z,21.20
2022-08-27T14:27:54.553Z,21.70
2022-08-27T14:30:29.980Z,22.20
2022-08-27T14:33:00.297Z,22.00
2022-08-27T14:35:29.668Z,21.80
2022-08-27T14:38:02.496Z,21.90
2022-08-27T14:40:31.446Z,21.50
2022-08-27T14:43:01.148Z,21.50
2022-08-27T14:45:29.510Z,22.20
2022-08-27T14:47:59.058Z,22.00
2022-08-27T14:50:30.421Z,22.30
2022-08-27T14:52:59.914Z,23.10
2022-08-27T14:55:28.323Z,22.50
2022-08-27T14:57:56.449Z,22.60
2022-08-27T15:00:25.358Z,23.20
2022-08-27T15:02:53.919Z,21.90
2022-08-27T15:05:24.789Z,23.40
2022-08-27T15:07:56.245Z,22.70
2022-08-27T15:10:27.588Z,21.80
2022-08-27T15:15:24.761Z,21.40
2022-08-27T15:17:52.935Z,21.30
2022-08-27T15:20:21.437Z,21.30
2022-08-27T15:22:52.428Z,21.50
2022-08-27T15:27:51.664Z,20.90
2022-08-27T15:30:27.480Z,22.90
2022-08-27T15:32:56.864Z,21.80
2022-08-27T15:35:28.442Z,21.90
2022-08-27T15:37:58.138Z,21.90
2022-08-27T15:40:27.590Z,21.70
2022-08-27T15:42:59.160Z,22.00
2022-08-27T15:45:27.496Z,22.00
2022-08-27T15:47:55.966Z,22.00
2022-08-27T15:50:24.551Z,21.90
2022-08-27T15:52:55.436Z,21.90
2022-08-27T15:55:25.930Z,21.90
2022-08-27T15:57:55.356Z,22.00
2022-08-27T16:00:25.429Z,21.80
2022-08-27T16:02:54.024Z,21.70
2022-08-27T16:05:22.928Z,21.70
2022-08-27T16:07:50.976Z,21.60
2022-08-27T16:10:19.495Z,22.20
2022-08-27T16:12:47.611Z,21.10
2022-08-27T16:15:17.337Z,21.50
2022-08-27T16:17:46.905Z,21.40
2022-08-27T16:20:16.695Z,21.70
2022-08-27T16:22:45.487Z,21.30
2022-08-27T16:25:18.310Z,21.30
2022-08-27T16:27:46.664Z,21.20
2022-08-27T16:30:15.364Z,21.30
2022-08-27T16:32:44.552Z,21.00
2022-08-27T16:35:15.350Z,21.00
2022-08-27T16:40:14.933Z,20.20
2022-08-27T16:42:46.705Z,20.20
2022-08-27T16:45:16.245Z,21.00
2022-08-27T16:48:02.336Z,22.20
2022-08-27T16:50:34.666Z,20.40
2022-08-27T16:53:06.819Z,20.40
2022-08-27T16:55:37.557Z,21.00
2022-08-27T16:58:07.103Z,20.70
2022-08-27T17:00:37.935Z,21.20
2022-08-27T17:03:07.674Z,20.20
2022-08-27T17:05:37.522Z,19.90
2022-08-27T17:08:11.587Z,20.00
2022-08-27T17:10:45.672Z,19.80
2022-08-27T17:13:16.234Z,21.20
2022-08-27T17:15:44.853Z,20.80
2022-08-27T17:18:13.133Z,19.90
2022-08-27T17:20:43.204Z,20.50
2022-08-27T17:23:21.700Z,20.30
2022-08-27T17:25:50.070Z,19.90
2022-08-27T17:28:18.181Z,20.00
2022-08-27T17:33:25.481Z,19.40
2022-08-27T17:35:55.065Z,19.60
2022-08-27T17:38:23.123Z,20.70
2022-08-27T17:40:53.371Z,20.30
2022-08-27T17:43:21.698Z,19.60
2022-08-27T17:45:50.399Z,20.20
2022-08-27T17:48:22.650Z,20.30
2022-08-27T17:50:54.763Z,20.20
2022-08-27T17:53:23.072Z,20.30
2022-08-27T17:55:51.318Z,19.70
2022-08-27T17:58:20.201Z,19.80
2022-08-27T18:00:48.524Z,20.60
2022-08-27T18:03:21.106Z,21.10
2022-08-27T18:05:51.052Z,21.00
2022-08-27T18:08:20.575Z,19.40
2022-08-27T18:10:48.927Z,19.20
2022-08-27T18:13:17.928Z,20.00
2022-08-27T18:15:46.865Z,19.40
2022-08-27T18:18:15.899Z,20.30
2022-08-27T18:20:44.111Z,19.80
2022-08-27T18:23:13.281Z,19.30
2022-08-27T18:25:45.385Z,19.70
2022-08-27T18:28:14.933Z,20.30
2022-08-27T18:30:45.737Z,19.80
2022-08-27T18:33:14.495Z,19.80
2022-08-27T18:35:43.398Z,19.30
2022-08-27T18:38:11.820Z,20.80
2022-08-27T18:40:47.112Z,18.90
2022-08-27T18:43:17.147Z,19.70
2022-08-27T18:45:45.928Z,19.10
2022-08-27T18:48:18.079Z,19.60
2022-08-27T18:50:49.134Z,19.60
2022-08-27T18:53:19.855Z,19.60
2022-08-27T18:55:50.833Z,18.70
2022-08-27T18:58:19.859Z,18.50
2022-08-27T19:00:52.346Z,20.30
2022-08-27T19:03:25.608Z,19.70
2022-08-27T19:05:55.102Z,20.20
2022-08-27T19:08:24.919Z,19.30
2022-08-27T19:10:54.437Z,20.10
2022-08-27T19:13:22.626Z,20.20
2022-08-27T19:15:55.821Z,19.50
2022-08-27T19:18:26.706Z,20.50
2022-08-27T19:20:55.327Z,20.00
2022-08-27T19:23:24.097Z,18.60
2022-08-27T19:25:54.912Z,20.30
2022-08-27T19:28:27.975Z,19.20
2022-08-27T19:33:24.643Z,18.70
2022-08-27T19:35:52.995Z,19.20
2022-08-27T19:38:21.250Z,19.20
2022-08-27T19:40:49.355Z,18.40
2022-08-27T19:43:19.077Z,18.50
2022-08-27T19:45:47.834Z,18.60
2022-08-27T19:48:17.540Z,18.50
2022-08-27T19:50:45.869Z,18.50
2022-08-27T19:53:15.193Z,18.80
2022-08-27T19:55:45.413Z,18.50
2022-08-27T19:58:14.063Z,18.40
2022-08-27T20:00:44.845Z,19.20
2022-08-27T20:03:13.336Z,18.40
2022-08-27T20:05:41.453Z,19.50
2022-08-27T20:08:09.874Z,18.80
2022-08-27T20:10:41.456Z,18.80
2022-08-27T20:13:09.978Z,18.80
2022-08-27T20:15:38.990Z,19.20
2022-08-27T20:18:10.362Z,19.00
2022-08-27T20:20:38.551Z,18.70
2022-08-27T20:23:07.451Z,19.20
2022-08-27T20:25:37.180Z,18.30
2022-08-27T20:28:28.234Z,19.60
2022-08-27T20:33:27.483Z,18.80
2022-08-27T20:38:24.931Z,19.00
2022-08-27T20:40:53.151Z,18.40
2022-08-27T20:43:21.672Z,19.10
2022-08-27T20:45:49.941Z,18.40
2022-08-27T20:48:18.266Z,17.60
2022-08-27T20:50:47.847Z,17.70
2022-08-27T20:53:16.257Z,17.70
2022-08-27T20:55:44.413Z,18.20
2022-08-27T20:58:30.239Z,18.60
2022-08-27T21:00:59.453Z,17.60
2022-08-27T21:03:27.616Z,18.10
2022-08-27T21:05:57.105Z,16.80
2022-08-27T21:08:25.605Z,17.30
2022-08-27T21:10:57.768Z,17.10
2022-08-27T21:13:29.441Z,17.60
2022-08-27T21:15:57.817Z,17.40
2022-08-27T21:18:29.692Z,17.20
2022-08-27T21:21:00.860Z,17.00
2022-08-27T21:23:30.448Z,17.30
2022-08-27T21:26:02.566Z,18.20
2022-08-27T21:28:30.960Z,16.60
2022-08-27T21:30:59.195Z,16.60
2022-08-27T21:33:27.564Z,16.90
2022-08-27T21:35:55.933Z,16.90
2022-08-27T21:38:25.476Z,16.40
2022-08-27T21:40:53.645Z,16.80
2022-08-27T21:43:21.895Z,16.20
2022-08-27T21:45:53.398Z,15.80
2022-08-27T21:48:21.911Z,16.20
2022-08-27T21:50:53.399Z,16.10
2022-08-27T21:53:22.279Z,16.70
2022-08-27T21:55:53.687Z,15.70
2022-08-27T21:58:26.256Z,16.30
2022-08-27T22:00:55.062Z,16.30
2022-08-27T22:03:26.085Z,16.70
2022-08-27T22:05:54.388Z,17.50
2022-08-27T22:08:24.042Z,16.90
2022-08-27T22:10:57.845Z,17.30
2022-08-27T22:13:26.712Z,15.70
2022-08-27T22:15:54.998Z,16.10
2022-08-27T22:18:23.915Z,16.40
2022-08-27T22:20:53.278Z,15.60
2022-08-27T22:23:22.722Z,15.60
2022-08-27T22:25:50.857Z,18.20
2022-08-27T22:28:20.676Z,17.40
2022-08-27T22:30:48.799Z,16.10
2022-08-27T22:33:17.755Z,15.70
2022-08-27T22:35:46.127Z,17.60
2022-08-27T22:38:14.497Z,16.60
2022-08-27T22:43:12.708Z,15.40
2022-08-27T22:45:42.188Z,15.90
2022-08-27T22:48:10.440Z,15.90
2022-08-27T22:50:38.779Z,15.70
2022-08-27T22:53:07.027Z,17.50
2022-08-27T22:55:35.466Z,16.20
2022-08-27T22:58:03.617Z,16.70
2022-08-27T23:00:35.243Z,16.20
2022-08-27T23:03:06.278Z,15.50
2022-08-27T23:05:40.375Z,18.20
2022-08-27T23:08:13.208Z,16.20
2022-08-27T23:10:43.800Z,16.50
2022-08-27T23:13:13.290Z,16.30
2022-08-27T23:15:42.247Z,16.40
2022-08-27T23:18:12.033Z,16.10
2022-08-27T23:20:40.782Z,16.60
2022-08-27T23:23:10.153Z,16.40
2022-08-27T23:25:56.404Z,16.00
2022-08-27T23:28:24.589Z,16.70
2022-08-27T23:30:55.817Z,16.70
2022-08-27T23:33:25.263Z,16.50
2022-08-27T23:35:53.521Z,15.60
2022-08-27T23:38:22.863Z,16.40
2022-08-27T23:40:53.295Z,15.30
2022-08-27T23:43:22.188Z,16.80
2022-08-27T23:45:51.998Z,14.70
2022-08-27T23:48:20.462Z,16.20
2022-08-27T23:50:50.516Z,15.40
2022-08-27T23:53:18.989Z,16.20
2022-08-27T23:55:47.072Z,15.20
2022-08-27T23:58:15.143Z,14.60
